createdAt,value
2023-02-22T00:02:14.272Z,100304.79
2023-02-22T00:04:42.906Z,100303.52
2023-02-22T00:07:12.177Z,100304.45
2023-02-22T00:09:42.134Z,100307.69
2023-02-22T00:12:10.957Z,100311.76
2023-02-22T00:14:42.516Z,100313.82
2023-02-22T00:17:15.428Z,100317.81
2023-02-22T00:19:49.109Z,100320.91
2023-02-22T00:22:19.293Z,100322.55
2023-02-22T00:24:48.723Z,100321.58
2023-02-22T00:27:17.320Z,100321.17
2023-02-22T00:29:47.132Z,100317.69
2023-02-22T00:32:15.940Z,100315.81
2023-02-22T00:34:44.508Z,100321.36
2023-02-22T00:37:13.117Z,100325.21
2023-02-22T00:39:41.928Z,100326.98
2023-02-22T00:42:10.612Z,100325.23
2023-02-22T00:44:39.297Z,100327.01
2023-02-22T00:47:08.911Z,100330.88
2023-02-22T00:49:38.097Z,100332.83
2023-02-22T00:52:07.097Z,100331.00
2023-02-22T00:54:36.248Z,100334.17
2023-02-22T00:57:04.765Z,100335.00
2023-02-22T00:59:33.214Z,100334.23
2023-02-22T01:02:01.779Z,100333.28
2023-02-22T01:04:30.598Z,100331.08
2023-02-22T01:07:01.121Z,100335.05
2023-02-22T01:09:29.806Z,100337.27
2023-02-22T01:11:58.695Z,100332.81
2023-02-22T01:14:28.190Z,100332.50
2023-02-22T01:16:57.809Z,100332.13
2023-02-22T01:19:26.071Z,100337.59
2023-02-22T01:21:54.876Z,100336.27
2023-02-22T01:24:23.258Z,100334.05
2023-02-22T01:26:53.065Z,100335.21
2023-02-22T01:29:21.953Z,100336.19
2023-02-22T01:31:56.036Z,100335.34
2023-02-22T01:34:25.974Z,100336.67
2023-02-22T01:36:54.686Z,100337.66
2023-02-22T01:39:23.246Z,100339.05
2023-02-22T01:41:53.910Z,100336.01
2023-02-22T01:44:35.504Z,100332.85
2023-02-22T01:47:06.098Z,100333.42
2023-02-22T01:49:42.668Z,100331.95
2023-02-22T01:52:17.167Z,100327.33
2023-02-22T01:54:55.407Z,100325.14
2023-02-22T01:57:30.335Z,100326.55
2023-02-22T02:00:21.514Z,100326.81
2023-02-22T02:02:59.073Z,100330.83
2023-02-22T02:05:32.032Z,100329.76
2023-02-22T02:08:13.722Z,100328.20
2023-02-22T02:10:44.561Z,100324.07
2023-02-22T02:13:13.232Z,100321.66
2023-02-22T02:15:42.649Z,100323.22
2023-02-22T02:18:13.994Z,100327.86
2023-02-22T02:20:47.996Z,100327.41
2023-02-22T02:23:58.984Z,100329.23
2023-02-22T02:26:42.610Z,100330.06
2023-02-22T02:29:32.184Z,100330.23
2023-02-22T02:32:28.567Z,100326.91
2023-02-22T02:35:08.836Z,100325.30
2023-02-22T02:37:41.646Z,100325.23
2023-02-22T02:40:29.830Z,100329.60
2023-02-22T02:43:20.509Z,100328.38
2023-02-22T02:46:07.739Z,100316.93
2023-02-22T02:48:42.569Z,100321.20
2023-02-22T02:51:14.593Z,100317.95
2023-02-22T02:53:46.698Z,100314.86
2023-02-22T02:56:15.094Z,100317.55
2023-02-22T02:58:54.192Z,100315.30
2023-02-22T03:01:43.081Z,100315.96
2023-02-22T03:05:09.108Z,100317.55
2023-02-22T03:07:43.540Z,100316.26
2023-02-22T03:10:21.514Z,100316.21
2023-02-22T03:13:27.279Z,100318.11
2023-02-22T03:16:13.940Z,100321.42
2023-02-22T03:18:59.866Z,100322.00
2023-02-22T03:21:41.041Z,100322.70
2023-02-22T03:24:22.555Z,100324.13
2023-02-22T03:27:03.396Z,100325.80
2023-02-22T03:29:37.334Z,100325.26
2023-02-22T03:32:16.088Z,100326.84
2023-02-22T03:34:53.134Z,100325.73
2023-02-22T03:37:31.151Z,100328.01
2023-02-22T03:40:07.319Z,100326.20
2023-02-22T03:42:38.325Z,100325.67
2023-02-22T03:45:10.329Z,100325.10
2023-02-22T03:47:45.957Z,100325.75
2023-02-22T03:50:20.467Z,100328.52
2023-02-22T03:52:49.252Z,100326.17
2023-02-22T03:55:23.949Z,100325.91
2023-02-22T03:57:58.177Z,100330.77
2023-02-22T04:00:30.785Z,100329.86
2023-02-22T04:03:00.234Z,100331.13
2023-02-22T04:05:29.352Z,100331.40
2023-02-22T04:07:59.158Z,100333.25
2023-02-22T04:10:28.933Z,100332.82
2023-02-22T04:12:57.354Z,100334.34
2023-02-22T04:15:26.135Z,100331.54
2023-02-22T04:17:58.209Z,100336.19
2023-02-22T04:20:26.698Z,100338.52
2023-02-22T04:22:59.365Z,100337.20
2023-02-22T04:25:28.255Z,100334.06
2023-02-22T04:27:58.176Z,100332.83
2023-02-22T04:30:38.657Z,100332.38
2023-02-22T04:33:11.001Z,100330.08
2023-02-22T04:35:39.672Z,100332.88
2023-02-22T04:38:09.821Z,100329.13
2023-02-22T04:40:40.765Z,100329.27
2023-02-22T04:43:09.948Z,100327.16
2023-02-22T04:45:38.427Z,100326.95
2023-02-22T04:48:07.628Z,100328.18
2023-02-22T04:50:37.027Z,100324.75
2023-02-22T04:53:05.605Z,100323.92
2023-02-22T04:55:34.386Z,100323.75
2023-02-22T04:58:03.600Z,100320.29
2023-02-22T05:00:32.079Z,100320.03
2023-02-22T05:03:03.368Z,100319.98
2023-02-22T05:05:32.019Z,100316.31
2023-02-22T05:08:00.384Z,100315.27
2023-02-22T05:10:29.899Z,100315.44
2023-02-22T05:12:58.269Z,100313.94
2023-02-22T05:15:26.750Z,100314.58
2023-02-22T05:17:55.235Z,100314.42
2023-02-22T05:20:25.348Z,100316.11
2023-02-22T05:22:56.187Z,100317.22
2023-02-22T05:25:25.428Z,100318.46
2023-02-22T05:27:58.342Z,100314.00
2023-02-22T05:30:30.333Z,100311.25
2023-02-22T05:32:59.698Z,100311.47
2023-02-22T05:35:29.525Z,100312.25
2023-02-22T05:37:59.971Z,100314.55
2023-02-22T05:40:29.433Z,100316.32
2023-02-22T05:42:58.703Z,100314.48
2023-02-22T05:45:28.701Z,100316.59
2023-02-22T05:47:57.307Z,100317.55
2023-02-22T05:50:26.329Z,100318.80
2023-02-22T05:52:55.070Z,100316.40
2023-02-22T05:55:24.901Z,100320.21
2023-02-22T05:57:54.088Z,100322.21
2023-02-22T06:00:26.022Z,100321.58
2023-02-22T06:02:59.074Z,100322.10
2023-02-22T06:05:28.477Z,100328.48
2023-02-22T06:07:57.919Z,100328.21
2023-02-22T06:10:26.628Z,100333.02
2023-02-22T06:12:55.720Z,100330.45
2023-02-22T06:15:26.447Z,100336.39
2023-02-22T06:17:56.043Z,100339.35
2023-02-22T06:20:27.038Z,100336.23
2023-02-22T06:22:57.977Z,100337.73
2023-02-22T06:25:31.281Z,100339.61
2023-02-22T06:28:00.952Z,100342.92
2023-02-22T06:30:30.635Z,100344.00
2023-02-22T06:32:59.167Z,100348.91
2023-02-22T06:35:27.527Z,100350.84
2023-02-22T06:37:56.005Z,100355.46
2023-02-22T06:40:29.566Z,100352.85
2023-02-22T06:42:58.687Z,100356.08
2023-02-22T06:45:27.098Z,100362.08
2023-02-22T06:47:55.846Z,100364.23
2023-02-22T06:50:30.253Z,100368.14
2023-02-22T06:52:59.280Z,100372.18
2023-02-22T06:55:30.510Z,100376.26
2023-02-22T06:58:00.787Z,100380.22
2023-02-22T07:00:31.138Z,100381.62
2023-02-22T07:03:00.293Z,100385.70
2023-02-22T07:05:28.949Z,100386.36
2023-02-22T07:08:05.008Z,100387.64
2023-02-22T07:10:35.540Z,100388.95
2023-02-22T07:13:05.652Z,100391.70
2023-02-22T07:15:35.216Z,100395.80
2023-02-22T07:18:04.575Z,100395.00
2023-02-22T07:20:33.750Z,100396.42
2023-02-22T07:23:02.105Z,100397.63
2023-02-22T07:25:30.743Z,100397.48
2023-02-22T07:28:00.129Z,100398.52
2023-02-22T07:30:34.462Z,100396.50
2023-02-22T07:33:06.577Z,100400.88
2023-02-22T07:35:44.768Z,100401.70
2023-02-22T07:38:15.043Z,100405.63
2023-02-22T07:40:44.150Z,100401.86
2023-02-22T07:43:17.425Z,100405.67
2023-02-22T07:45:47.186Z,100405.13
2023-02-22T07:48:17.688Z,100402.31
2023-02-22T07:50:47.087Z,100402.84
2023-02-22T07:53:18.432Z,100402.17
2023-02-22T07:55:48.141Z,100402.80
2023-02-22T07:58:18.324Z,100401.13
2023-02-22T08:00:48.785Z,100400.65
2023-02-22T08:03:20.284Z,100406.55
2023-02-22T08:05:55.191Z,100406.09
2023-02-22T08:08:24.387Z,100408.08
2023-02-22T08:10:53.570Z,100409.63
2023-02-22T08:13:22.846Z,100410.58
2023-02-22T08:15:53.990Z,100408.16
2023-02-22T08:18:24.126Z,100411.14
2023-02-22T08:20:53.970Z,100407.61
2023-02-22T08:23:25.649Z,100405.17
2023-02-22T08:25:54.569Z,100406.13
2023-02-22T08:28:25.040Z,100404.63
2023-02-22T08:30:54.174Z,100404.60
2023-02-22T08:33:23.014Z,100401.80
2023-02-22T08:35:52.050Z,100401.17
2023-02-22T08:38:25.354Z,100398.17
2023-02-22T08:40:53.982Z,100397.48
2023-02-22T08:43:24.187Z,100395.48
2023-02-22T08:45:56.153Z,100393.81
2023-02-22T08:48:25.961Z,100392.34
2023-02-22T08:50:57.313Z,100393.59
2023-02-22T08:53:26.010Z,100395.27
2023-02-22T08:55:54.294Z,100398.31
2023-02-22T08:58:23.177Z,100394.16
2023-02-22T09:00:52.341Z,100391.86
2023-02-22T09:03:21.307Z,100392.33
2023-02-22T09:05:50.079Z,100392.27
2023-02-22T09:08:18.759Z,100393.43
2023-02-22T09:10:47.412Z,100389.96
2023-02-22T09:13:15.699Z,100390.48
2023-02-22T09:15:44.077Z,100391.20
2023-02-22T09:18:14.913Z,100392.04
2023-02-22T09:20:43.311Z,100392.88
2023-02-22T09:23:11.781Z,100396.19
2023-02-22T09:25:41.202Z,100393.75
2023-02-22T09:28:09.856Z,100394.71
2023-02-22T09:30:38.396Z,100393.88
2023-02-22T09:33:12.033Z,100397.73
2023-02-22T09:35:50.252Z,100398.36
2023-02-22T09:38:23.294Z,100393.70
2023-02-22T09:41:12.722Z,100395.44
2023-02-22T09:43:57.980Z,100389.77
2023-02-22T09:46:35.242Z,100389.23
2023-02-22T09:49:38.254Z,100392.14
2023-02-22T09:52:28.961Z,100387.59
2023-02-22T09:55:10.359Z,100391.70
2023-02-22T09:57:43.209Z,100389.67
2023-02-22T10:00:22.208Z,100387.71
2023-02-22T10:03:21.367Z,100391.20
2023-02-22T10:06:03.069Z,100390.86
2023-02-22T10:08:34.092Z,100391.02
2023-02-22T10:11:11.116Z,100386.23
2023-02-22T10:14:02.315Z,100390.73
2023-02-22T10:16:42.152Z,100389.64
2023-02-22T10:19:14.525Z,100388.50
2023-02-22T10:22:14.411Z,100385.77
2023-02-22T10:24:43.817Z,100387.36
2023-02-22T10:27:22.573Z,100389.33
2023-02-22T10:29:59.896Z,100392.05
2023-02-22T10:32:36.820Z,100390.15
2023-02-22T10:35:21.226Z,100394.63
2023-02-22T10:37:56.609Z,100391.50
2023-02-22T10:40:32.721Z,100393.22
2023-02-22T10:43:07.200Z,100383.41
2023-02-22T10:45:37.519Z,100384.02
2023-02-22T10:48:27.315Z,100384.99
2023-02-22T10:51:00.523Z,100383.46
2023-02-22T10:53:30.259Z,100375.89
2023-02-22T10:56:15.757Z,100377.27
2023-02-22T10:58:48.282Z,100375.88
2023-02-22T11:01:21.184Z,100377.30
2023-02-22T11:04:13.586Z,100371.17
2023-02-22T11:06:45.062Z,100368.81
2023-02-22T11:09:22.575Z,100371.03
2023-02-22T11:12:09.909Z,100368.57
2023-02-22T11:14:39.798Z,100363.67
2023-02-22T11:17:13.394Z,100364.38
2023-02-22T11:19:48.537Z,100362.14
2023-02-22T11:22:42.391Z,100358.94
2023-02-22T11:25:20.440Z,100362.20
2023-02-22T11:27:49.179Z,100358.61
2023-02-22T11:30:17.628Z,100350.84
2023-02-22T11:32:49.937Z,100352.96
2023-02-22T11:35:36.122Z,100352.27
2023-02-22T11:38:23.146Z,100350.75
2023-02-22T11:41:15.026Z,100352.55
2023-02-22T11:43:45.707Z,100351.50
2023-02-22T11:46:17.878Z,100354.41
2023-02-22T11:49:11.357Z,100350.05
2023-02-22T11:51:48.841Z,100347.81
2023-02-22T11:54:29.202Z,100347.73
2023-02-22T11:57:24.707Z,100345.73
2023-02-22T12:00:16.698Z,100345.73
2023-02-22T12:03:06.729Z,100343.27
2023-02-22T12:05:59.838Z,100348.50
2023-02-22T12:08:57.250Z,100345.05
2023-02-22T12:11:40.479Z,100346.98
2023-02-22T12:14:34.648Z,100341.64
2023-02-22T12:17:23.633Z,100338.72
2023-02-22T12:20:10.218Z,100338.89
2023-02-22T12:22:53.002Z,100340.38
2023-02-22T12:25:35.854Z,100338.21
2023-02-22T12:28:24.650Z,100336.63
2023-02-22T12:31:13.747Z,100335.44
2023-02-22T12:33:54.416Z,100337.30
2023-02-22T12:36:35.743Z,100337.40
2023-02-22T12:39:23.684Z,100337.11
2023-02-22T12:41:56.774Z,100336.67
2023-02-22T12:44:34.145Z,100332.91
2023-02-22T12:47:05.837Z,100332.89
2023-02-22T12:49:48.124Z,100330.38
2023-02-22T12:52:28.570Z,100334.02
2023-02-22T12:55:11.488Z,100328.98
2023-02-22T12:57:57.492Z,100327.74
2023-02-22T13:00:35.715Z,100326.42
2023-02-22T13:03:36.941Z,100325.98
2023-02-22T13:06:27.439Z,100321.16
2023-02-22T13:09:17.668Z,100320.34
2023-02-22T13:12:06.366Z,100320.98
2023-02-22T13:14:55.399Z,100319.52
2023-02-22T13:17:46.260Z,100318.58
2023-02-22T13:20:27.945Z,100319.45
2023-02-22T13:23:05.442Z,100319.66
2023-02-22T13:26:09.485Z,100320.59
2023-02-22T13:28:57.500Z,100319.67
2023-02-22T13:32:02.944Z,100319.73
2023-02-22T13:34:50.378Z,100320.95
2023-02-22T13:37:40.134Z,100320.23
2023-02-22T13:40:47.343Z,100317.70
2023-02-22T13:43:38.949Z,100314.62
2023-02-22T13:46:26.717Z,100312.27
2023-02-22T13:49:21.377Z,100310.63
2023-02-22T13:51:53.005Z,100312.11
2023-02-22T13:55:11.377Z,100315.66
2023-02-22T13:57:48.969Z,100309.86
2023-02-22T14:00:19.449Z,100311.59
2023-02-22T14:03:08.670Z,100307.11
2023-02-22T14:05:51.922Z,100308.52
2023-02-22T14:08:22.010Z,100306.48
2023-02-22T14:10:52.416Z,100308.59
2023-02-22T14:13:23.462Z,100306.50
2023-02-22T14:15:58.329Z,100307.31
2023-02-22T14:18:36.413Z,100305.16
2023-02-22T14:21:20.658Z,100306.15
2023-02-22T14:23:54.345Z,100306.61
2023-02-22T14:26:34.380Z,100301.71
2023-02-22T14:29:09.518Z,100292.77
2023-02-22T14:31:43.648Z,100302.67
2023-02-22T14:34:41.589Z,100300.03
2023-02-22T14:37:20.664Z,100299.51
2023-02-22T14:40:18.970Z,100299.30
2023-02-22T14:43:02.131Z,100297.02
2023-02-22T14:45:45.383Z,100297.88
2023-02-22T14:48:39.620Z,100296.52
2023-02-22T14:51:25.123Z,100292.63
2023-02-22T14:54:09.324Z,100297.31
2023-02-22T14:56:56.841Z,100297.23
2023-02-22T14:59:27.679Z,100294.94
2023-02-22T15:02:26.431Z,100291.66
2023-02-22T15:04:56.796Z,100291.94
2023-02-22T15:07:29.771Z,100292.59
2023-02-22T15:10:20.819Z,100288.58
2023-02-22T15:13:10.928Z,100292.50
2023-02-22T15:15:47.588Z,100290.74
2023-02-22T15:18:23.460Z,100290.98
2023-02-22T15:20:56.535Z,100292.39
2023-02-22T15:23:30.528Z,100290.59
2023-02-22T15:25:59.514Z,100290.19
2023-02-22T15:28:31.300Z,100287.66
2023-02-22T15:31:17.000Z,100283.27
2023-02-22T15:33:47.535Z,100284.10
2023-02-22T15:36:18.503Z,100285.61
2023-02-22T15:38:52.470Z,100285.09
2023-02-22T15:41:31.766Z,100284.53
2023-02-22T15:44:14.185Z,100279.65
2023-02-22T15:46:50.843Z,100278.05
2023-02-22T15:49:23.594Z,100279.31
2023-02-22T15:52:06.662Z,100282.45
2023-02-22T15:54:41.796Z,100284.04
2023-02-22T15:57:14.981Z,100286.44
2023-02-22T15:59:49.316Z,100282.94
2023-02-22T16:02:39.020Z,100288.34
2023-02-22T16:05:12.571Z,100288.30
2023-02-22T16:07:51.821Z,100292.64
2023-02-22T16:10:25.218Z,100294.75
2023-02-22T16:13:10.021Z,100294.48
2023-02-22T16:15:43.382Z,100295.63
2023-02-22T16:18:41.965Z,100294.14
2023-02-22T16:21:14.326Z,100298.55
2023-02-22T16:23:45.655Z,100299.73
2023-02-22T16:26:22.160Z,100301.64
2023-02-22T16:29:03.494Z,100304.70
2023-02-22T16:31:39.430Z,100305.16
2023-02-22T16:34:11.384Z,100308.86
2023-02-22T16:36:46.929Z,100308.94
2023-02-22T16:39:40.188Z,100309.91
2023-02-22T16:42:14.077Z,100317.08
2023-02-22T16:44:43.629Z,100317.81
2023-02-22T16:47:15.611Z,100319.52
2023-02-22T16:49:57.681Z,100320.70
2023-02-22T16:52:29.212Z,100324.44
2023-02-22T16:55:00.326Z,100319.63
2023-02-22T16:57:32.651Z,100325.63
2023-02-22T17:00:02.796Z,100328.17
2023-02-22T17:02:32.779Z,100329.08
2023-02-22T17:05:02.077Z,100331.88
2023-02-22T17:07:31.374Z,100333.89
2023-02-22T17:10:00.868Z,100340.02
2023-02-22T17:12:32.476Z,100336.45
2023-02-22T17:15:03.745Z,100336.23
2023-02-22T17:17:33.025Z,100334.85
2023-02-22T17:20:07.564Z,100338.95
2023-02-22T17:22:37.815Z,100339.00
2023-02-22T17:25:26.242Z,100338.91
2023-02-22T17:27:56.005Z,100340.17
2023-02-22T17:30:26.132Z,100338.52
2023-02-22T17:33:03.866Z,100339.94
2023-02-22T17:35:37.071Z,100340.95
2023-02-22T17:38:07.501Z,100337.19
2023-02-22T17:40:40.353Z,100342.48
2023-02-22T17:43:09.476Z,100341.63
2023-02-22T17:45:40.042Z,100338.17
2023-02-22T17:48:09.813Z,100335.08
2023-02-22T17:50:42.130Z,100335.73
2023-02-22T17:53:11.492Z,100336.38
2023-02-22T17:55:46.338Z,100337.63
2023-02-22T17:58:17.001Z,100333.81
2023-02-22T18:00:50.194Z,100332.85
2023-02-22T18:03:26.124Z,100333.62
2023-02-22T18:06:00.903Z,100329.48
2023-02-22T18:08:32.460Z,100330.66
2023-02-22T18:11:06.263Z,100333.73
2023-02-22T18:13:36.150Z,100333.13
2023-02-22T18:16:06.900Z,100331.38
2023-02-22T18:18:37.163Z,100334.52
2023-02-22T18:21:06.832Z,100334.96
2023-02-22T18:23:35.592Z,100334.50
2023-02-22T18:26:11.626Z,100333.73
2023-02-22T18:28:42.029Z,100330.42
2023-02-22T18:31:15.360Z,100333.41
2023-02-22T18:33:47.836Z,100330.90
2023-02-22T18:36:24.073Z,100326.73
2023-02-22T18:38:55.039Z,100328.51
2023-02-22T18:41:25.847Z,100328.58
2023-02-22T18:43:57.850Z,100328.60
2023-02-22T18:46:28.247Z,100330.34
2023-02-22T18:48:58.076Z,100330.20
2023-02-22T18:51:28.637Z,100329.87
2023-02-22T18:54:01.382Z,100331.88
2023-02-22T18:56:30.500Z,100326.83
2023-02-22T18:59:03.062Z,100329.03
2023-02-22T19:01:39.312Z,100327.50
2023-02-22T19:04:10.680Z,100322.94
2023-02-22T19:06:40.706Z,100323.60
2023-02-22T19:09:10.204Z,100321.86
2023-02-22T19:11:45.324Z,100324.35
2023-02-22T19:14:14.588Z,100322.45
2023-02-22T19:16:46.792Z,100319.83
2023-02-22T19:19:21.248Z,100320.46
2023-02-22T19:21:52.257Z,100320.19
2023-02-22T19:24:21.367Z,100319.98
2023-02-22T19:26:57.967Z,100317.98
2023-02-22T19:29:27.464Z,100316.14
2023-02-22T19:31:57.246Z,100317.54
2023-02-22T19:34:29.087Z,100319.94
2023-02-22T19:37:01.280Z,100319.48
2023-02-22T19:39:30.384Z,100321.52
2023-02-22T19:42:00.095Z,100318.69
2023-02-22T19:44:29.186Z,100320.21
2023-02-22T19:46:58.476Z,100321.77
2023-02-22T19:49:29.301Z,100322.12
2023-02-22T19:51:58.605Z,100319.73
2023-02-22T19:54:27.854Z,100323.95
2023-02-22T19:56:58.348Z,100328.24
2023-02-22T19:59:27.131Z,100325.77
2023-02-22T20:01:57.144Z,100325.80
2023-02-22T20:04:25.940Z,100328.40
2023-02-22T20:06:55.146Z,100326.95
2023-02-22T20:09:39.180Z,100330.95
2023-02-22T20:12:08.673Z,100327.95
2023-02-22T20:14:37.564Z,100332.92
2023-02-22T20:17:08.104Z,100329.48
2023-02-22T20:19:38.935Z,100331.16
2023-02-22T20:22:07.949Z,100334.73
2023-02-22T20:24:38.826Z,100334.77
2023-02-22T20:27:09.959Z,100330.30
2023-02-22T20:29:39.307Z,100332.55
2023-02-22T20:32:12.429Z,100330.55
2023-02-22T20:34:48.721Z,100330.70
2023-02-22T20:37:20.980Z,100330.51
2023-02-22T20:39:53.828Z,100325.36
2023-02-22T20:42:23.361Z,100323.35
2023-02-22T20:44:52.735Z,100320.13
2023-02-22T20:47:22.403Z,100320.74
2023-02-22T20:49:54.112Z,100321.81
2023-02-22T20:52:27.489Z,100319.48
2023-02-22T20:54:58.127Z,100321.15
2023-02-22T20:57:28.735Z,100321.09
2023-02-22T20:59:59.519Z,100325.13
2023-02-22T21:02:30.637Z,100325.17
2023-02-22T21:05:00.587Z,100321.41
2023-02-22T21:07:32.002Z,100323.83
2023-02-22T21:10:01.414Z,100323.36
2023-02-22T21:12:30.703Z,100322.37
2023-02-22T21:14:59.587Z,100318.95
2023-02-22T21:17:31.984Z,100318.20
2023-02-22T21:20:05.059Z,100314.39
2023-02-22T21:22:34.168Z,100318.16
2023-02-22T21:25:03.694Z,100314.75
2023-02-22T21:27:32.653Z,100311.56
2023-02-22T21:30:01.938Z,100314.85
2023-02-22T21:32:31.129Z,100313.39
2023-02-22T21:34:59.628Z,100313.62
2023-02-22T21:37:28.538Z,100308.79
2023-02-22T21:39:59.349Z,100306.94
2023-02-22T21:42:27.933Z,100305.35
2023-02-22T21:44:57.046Z,100304.12
2023-02-22T21:47:26.515Z,100304.69
2023-02-22T21:49:55.651Z,100301.70
2023-02-22T21:52:26.194Z,100300.59
2023-02-22T21:54:54.936Z,100296.88
2023-02-22T21:57:26.454Z,100300.17
2023-02-22T21:59:55.160Z,100293.22
2023-02-22T22:02:23.861Z,100293.00
2023-02-22T22:04:52.529Z,100291.30
2023-02-22T22:07:21.469Z,100294.96
2023-02-22T22:09:57.439Z,100292.16
2023-02-22T22:12:37.439Z,100292.27
2023-02-22T22:15:10.315Z,100293.47
2023-02-22T22:17:40.644Z,100293.96
2023-02-22T22:20:11.759Z,100291.27
2023-02-22T22:22:43.690Z,100289.37
2023-02-22T22:25:14.544Z,100289.80
2023-02-22T22:27:44.348Z,100288.83
2023-02-22T22:30:13.592Z,100285.10
2023-02-22T22:32:42.555Z,100282.55
2023-02-22T22:35:15.131Z,100281.18
2023-02-22T22:37:43.806Z,100277.67
2023-02-22T22:40:16.000Z,100277.02
2023-02-22T22:42:46.137Z,100271.71
2023-02-22T22:45:18.159Z,100270.02
2023-02-22T22:47:47.065Z,100269.45
2023-02-22T22:50:20.339Z,100265.92
2023-02-22T22:52:49.340Z,100265.29
2023-02-22T22:55:19.248Z,100265.22
2023-02-22T22:57:47.741Z,100260.72
2023-02-22T23:00:27.069Z,100261.45
2023-02-22T23:02:57.392Z,100263.11
2023-02-22T23:05:28.559Z,100264.38
2023-02-22T23:07:57.850Z,100263.10
2023-02-22T23:10:28.774Z,100259.96
2023-02-22T23:12:57.249Z,100258.81
2023-02-22T23:15:26.249Z,100260.39
2023-02-22T23:17:59.438Z,100258.36
2023-02-22T23:20:27.811Z,100257.14
2023-02-22T23:22:58.179Z,100255.86
2023-02-22T23:25:26.522Z,100253.16
2023-02-22T23:27:55.123Z,100252.02
2023-02-22T23:30:25.319Z,100248.82
2023-02-22T23:32:53.923Z,100249.88
2023-02-22T23:35:22.292Z,100249.05
2023-02-22T23:37:53.832Z,100249.36
2023-02-22T23:40:27.016Z,100247.04
2023-02-22T23:42:57.153Z,100243.55
2023-02-22T23:45:25.647Z,100241.91
2023-02-22T23:47:56.270Z,100243.73
2023-02-22T23:50:26.195Z,100240.32
2023-02-22T23:52:57.335Z,100240.00
2023-02-22T23:55:31.760Z,100236.14
2023-02-22T23:58:00.648Z,100235.45
